Time;durP1;ratioP1;P1;durP2;ratioP2;P2;SDS_P1;SDS_P2;PMS_P1;PMS_P2;Temp;Humidity;BMP_temperature;BMP_pressure;BME280_temperature;BME280_humidity;BME280_pressure;Samples;Min_cycle;Max_cycle;Signal;HPM_P1;HPM_P2
2023/03/10 00:00:53;;;;;;;11.20;7.40;;;;;;;-0.25;74.39;99055.02;103796;279;39414;-70
2023/03/10 00:03:29;;;;;;;11.80;7.40;;;;;;;-0.26;74.72;99046.80;103767;279;39299;-69
2023/03/10 00:06:04;;;;;;;9.40;7.10;;;;;;;-0.26;75.35;99050.75;103635;279;39951;-71
2023/03/10 00:08:38;;;;;;;12.90;7.50;;;;;;;-0.23;75.24;99046.77;103813;279;38222;-72
2023/03/10 00:11:11;;;;;;;9.30;6.60;;;;;;;-0.20;75.35;99054.94;103762;279;38471;-71
2023/03/10 00:13:45;;;;;;;12.80;8.20;;;;;;;-0.18;75.49;99062.81;103777;279;38275;-69
2023/03/10 00:16:21;;;;;;;12.40;7.20;;;;;;;-0.17;75.55;99054.90;103804;279;38243;-70
2023/03/10 00:18:55;;;;;;;11.40;7.70;;;;;;;-0.15;75.66;99048.34;103788;279;38672;-72
2023/03/10 00:21:31;;;;;;;11.10;7.90;;;;;;;-0.15;75.86;99038.24;103775;279;40017;-72
2023/03/10 00:24:05;;;;;;;12.10;7.50;;;;;;;-0.18;76.02;99037.59;103746;279;38503;-71
2023/03/10 00:26:39;;;;;;;13.80;8.40;;;;;;;-0.17;76.00;99030.23;103788;279;38299;-72
2023/03/10 00:29:15;;;;;;;13.90;8.60;;;;;;;-0.15;76.39;99016.98;103804;279;38437;-72
2023/03/10 00:31:49;;;;;;;11.70;8.10;;;;;;;-0.15;76.24;99010.45;103751;279;39463;-73
2023/03/10 00:34:23;;;;;;;12.30;8.40;;;;;;;-0.12;76.33;99005.61;103759;279;38521;-70
2023/03/10 00:36:57;;;;;;;15.80;9.90;;;;;;;-0.13;76.39;99008.22;103532;279;40349;-71
2023/03/10 00:39:31;;;;;;;13.00;8.90;;;;;;;-0.14;76.51;99013.38;103774;279;39228;-70
2023/03/10 00:42:06;;;;;;;16.00;10.40;;;;;;;-0.17;76.53;99012.05;103786;279;38323;-70
2023/03/10 00:44:39;;;;;;;13.70;8.90;;;;;;;-0.17;76.56;99008.45;103769;279;38268;-70
2023/03/10 00:47:13;;;;;;;13.80;9.00;;;;;;;-0.17;76.97;99004.00;103755;279;40206;-70
2023/03/10 00:49:48;;;;;;;14.90;9.50;;;;;;;-0.19;77.00;98994.43;103759;287;38428;-70
2023/03/10 00:52:22;;;;;;;13.60;9.40;;;;;;;-0.17;77.14;98998.35;103794;279;38265;-72
2023/03/10 00:54:56;;;;;;;15.70;9.80;;;;;;;-0.18;77.25;98990.81;103778;279;38559;-71
2023/03/10 00:57:31;;;;;;;17.30;10.80;;;;;;;-0.20;77.22;98988.62;103788;267;38423;-70
2023/03/10 01:00:07;;;;;;;20.60;10.30;;;;;;;-0.19;77.37;98984.16;103775;279;40009;-70
2023/03/10 01:02:42;;;;;;;17.00;10.30;;;;;;;-0.19;77.51;98981.08;103767;279;39569;-71
2023/03/10 01:05:16;;;;;;;14.80;10.50;;;;;;;-0.20;77.74;98980.04;103797;279;38269;-71
2023/03/10 01:07:50;;;;;;;20.70;11.40;;;;;;;-0.20;77.77;98982.79;103796;279;39440;-70
2023/03/10 01:10:25;;;;;;;19.00;11.60;;;;;;;-0.21;77.93;98979.88;103755;279;39352;-70
2023/03/10 01:12:59;;;;;;;19.10;13.20;;;;;;;-0.22;77.98;98976.15;103792;279;39483;-69
2023/03/10 01:15:33;;;;;;;18.40;12.10;;;;;;;-0.21;77.98;98977.48;103663;279;39148;-69
2023/03/10 01:18:07;;;;;;;16.90;11.70;;;;;;;-0.17;77.96;98976.58;103825;279;39651;-72
2023/03/10 01:20:41;;;;;;;18.90;11.20;;;;;;;-0.13;78.16;98973.92;103783;279;38247;-71
2023/03/10 01:23:19;;;;;;;17.40;11.40;;;;;;;-0.12;78.34;98971.00;103660;279;38386;-72
2023/03/10 01:25:53;;;;;;;18.90;12.40;;;;;;;-0.11;78.75;98964.98;103625;279;38826;-72
2023/03/10 01:28:27;;;;;;;17.40;12.50;;;;;;;-0.11;78.94;98961.39;103834;279;39193;-70
2023/03/10 01:31:03;;;;;;;18.80;13.10;;;;;;;-0.13;79.24;98953.70;103150;279;917544;-70
2023/03/10 01:33:39;;;;;;;19.80;12.60;;;;;;;-0.17;79.60;98946.91;103824;279;40026;-72
2023/03/10 01:36:15;;;;;;;17.90;12.30;;;;;;;-0.19;79.66;98946.79;103798;279;39737;-70
2023/03/10 01:38:51;;;;;;;19.80;12.50;;;;;;;-0.21;79.93;98946.66;103797;279;38293;-71
2023/03/10 01:41:25;;;;;;;18.60;12.40;;;;;;;-0.19;79.90;98940.80;103781;279;39934;-69
2023/03/10 01:44:02;;;;;;;20.70;13.90;;;;;;;-0.17;80.26;98937.67;103811;279;38268;-72
2023/03/10 01:46:57;;;;;;;19.50;14.20;;;;;;;-0.16;80.46;98939.36;103807;279;39733;-70
2023/03/10 01:49:40;;;;;;;22.20;14.80;;;;;;;-0.18;80.40;98931.34;103789;279;38325;-70
2023/03/10 01:52:18;;;;;;;23.30;14.50;;;;;;;-0.19;80.45;98926.56;103641;280;39705;-72
2023/03/10 01:54:55;;;;;;;19.10;13.40;;;;;;;-0.18;81.08;98920.05;103815;279;39709;-71
2023/03/10 01:57:31;;;;;;;19.90;13.10;;;;;;;-0.19;80.88;98916.62;103681;279;39686;-69
2023/03/10 02:00:11;;;;;;;20.70;13.60;;;;;;;-0.16;80.87;98906.61;103766;279;38234;-71
2023/03/10 02:02:52;;;;;;;21.10;14.00;;;;;;;-0.16;81.40;98898.91;103777;279;39947;-70
2023/03/10 02:05:26;;;;;;;19.50;13.10;;;;;;;-0.20;81.09;98893.33;103749;279;39408;-70
2023/03/10 02:08:00;;;;;;;19.90;13.50;;;;;;;-0.19;81.41;98888.70;103791;279;38597;-70
2023/03/10 02:10:34;;;;;;;20.20;13.10;;;;;;;-0.19;81.75;98889.03;103749;279;38552;-70
2023/03/10 02:13:08;;;;;;;21.70;12.80;;;;;;;-0.18;81.66;98884.05;103736;279;39415;-69
2023/03/10 02:15:42;;;;;;;21.20;13.90;;;;;;;-0.17;82.07;98867.58;103682;279;175996;-70
2023/03/10 02:18:16;;;;;;;18.30;13.30;;;;;;;-0.20;82.38;98865.23;103758;279;40235;-71
2023/03/10 02:20:55;;;;;;;19.50;13.10;;;;;;;-0.22;82.28;98857.39;103740;279;39885;-72
2023/03/10 02:23:36;;;;;;;20.30;12.30;;;;;;;-0.21;82.21;98856.51;103831;279;38568;-72
2023/03/10 02:26:12;;;;;;;18.10;12.60;;;;;;;-0.21;82.41;98862.83;103743;279;38228;-70
2023/03/10 02:28:48;;;;;;;16.80;12.30;;;;;;;-0.20;82.37;98864.20;103743;279;38392;-72
2023/03/10 02:31:22;;;;;;;18.90;13.30;;;;;;;-0.19;82.36;98860.23;103726;279;38256;-71
2023/03/10 02:33:57;;;;;;;20.30;13.20;;;;;;;-0.22;82.92;98853.27;103769;279;38252;-72
2023/03/10 02:36:31;;;;;;;17.70;10.90;;;;;;;-0.22;82.51;98850.70;103790;279;39628;-72
2023/03/10 02:39:05;;;;;;;18.20;11.60;;;;;;;-0.18;82.62;98850.64;103784;279;38467;-71
2023/03/10 02:41:41;;;;;;;16.70;12.00;;;;;;;-0.15;83.02;98839.59;103773;279;38462;-72
2023/03/10 02:44:17;;;;;;;19.40;12.90;;;;;;;-0.13;82.90;98823.98;103736;279;38303;-69
2023/03/10 02:46:51;;;;;;;18.50;13.00;;;;;;;-0.14;83.06;98821.92;103830;279;39271;-69
2023/03/10 02:49:25;;;;;;;21.10;14.60;;;;;;;-0.13;83.22;98825.50;103815;279;39649;-70
2023/03/10 02:51:59;;;;;;;20.30;13.40;;;;;;;-0.15;83.04;98825.89;103732;279;39470;-70
2023/03/10 02:54:33;;;;;;;21.30;14.30;;;;;;;-0.15;82.95;98828.97;103796;279;38272;-71
2023/03/10 02:57:07;;;;;;;20.90;13.40;;;;;;;-0.14;83.18;98820.90;103766;279;39682;-71
2023/03/10 02:59:42;;;;;;;18.70;12.60;;;;;;;-0.11;83.34;98807.48;103751;279;38946;-72
2023/03/10 03:02:15;;;;;;;20.50;14.10;;;;;;;-0.09;83.30;98802.79;103798;267;38992;-70
2023/03/10 03:04:49;;;;;;;20.90;14.60;;;;;;;-0.08;83.59;98804.66;103826;279;38516;-70
2023/03/10 03:07:24;;;;;;;21.10;14.30;;;;;;;-0.07;83.52;98802.42;103816;279;38585;-71
2023/03/10 03:09:57;;;;;;;19.80;14.10;;;;;;;-0.05;83.37;98790.20;103835;279;38509;-72
2023/03/10 03:12:32;;;;;;;18.70;13.80;;;;;;;-0.01;83.47;98779.48;103758;279;38985;-72
2023/03/10 03:15:07;;;;;;;19.70;13.80;;;;;;;0.03;83.61;98766.73;103761;279;38848;-71
2023/03/10 03:17:43;;;;;;;19.80;14.40;;;;;;;0.05;83.61;98756.22;103645;279;175914;-71
2023/03/10 03:20:17;;;;;;;20.10;15.40;;;;;;;0.06;83.62;98745.06;103768;279;38290;-71
2023/03/10 03:22:51;;;;;;;25.10;15.40;;;;;;;0.06;83.62;98741.29;103811;279;39555;-71
2023/03/10 03:25:26;;;;;;;22.40;14.70;;;;;;;0.05;83.42;98739.25;103785;268;38227;-71
2023/03/10 03:28:00;;;;;;;21.20;14.80;;;;;;;0.09;83.47;98734.02;103774;279;39446;-72
2023/03/10 03:30:34;;;;;;;22.20;14.30;;;;;;;0.12;83.71;98723.85;103746;279;38972;-72
2023/03/10 03:33:12;;;;;;;21.00;14.90;;;;;;;0.10;83.91;98722.85;103795;279;38811;-71
2023/03/10 03:35:46;;;;;;;21.80;14.80;;;;;;;0.07;83.88;98722.23;103748;279;38269;-71
2023/03/10 03:38:20;;;;;;;22.40;15.30;;;;;;;0.08;83.76;98724.95;103786;279;38382;-70
2023/03/10 03:40:54;;;;;;;22.00;14.30;;;;;;;0.11;84.14;98713.75;103769;279;38791;-71
2023/03/10 03:43:28;;;;;;;19.60;13.20;;;;;;;0.12;83.84;98706.52;103796;279;38720;-72
2023/03/10 03:46:03;;;;;;;18.80;14.30;;;;;;;0.14;83.88;98700.11;103762;279;39294;-70
2023/03/10 03:48:37;;;;;;;22.30;15.60;;;;;;;0.18;84.16;98699.02;103768;279;39666;-69
2023/03/10 03:51:11;;;;;;;21.70;14.90;;;;;;;0.18;84.06;98698.48;103764;279;38770;-70
2023/03/10 03:53:45;;;;;;;23.30;16.20;;;;;;;0.18;84.00;98689.09;103781;279;38377;-71
2023/03/10 03:56:19;;;;;;;20.60;14.40;;;;;;;0.16;84.18;98686.86;103758;279;39821;-71
2023/03/10 03:58:53;;;;;;;20.00;13.80;;;;;;;0.16;83.98;98691.86;103760;279;38222;-72
2023/03/10 04:01:27;;;;;;;18.40;14.20;;;;;;;0.21;83.96;98685.23;103792;279;38840;-72
2023/03/10 04:04:01;;;;;;;20.80;14.50;;;;;;;0.26;84.16;98674.47;103772;267;38504;-70
2023/03/10 04:06:35;;;;;;;23.00;15.70;;;;;;;0.31;84.18;98672.66;103803;279;38355;-72
2023/03/10 04:09:09;;;;;;;21.10;15.80;;;;;;;0.32;84.14;98677.09;103781;278;38678;-70
2023/03/10 04:11:43;;;;;;;21.80;15.10;;;;;;;0.31;83.99;98662.69;103788;278;38427;-71
2023/03/10 04:14:17;;;;;;;21.30;14.60;;;;;;;0.32;84.18;98649.66;103752;278;38716;-72
2023/03/10 04:16:51;;;;;;;20.10;14.70;;;;;;;0.33;84.16;98640.53;103772;279;38532;-71
2023/03/10 04:19:26;;;;;;;19.50;13.60;;;;;;;0.37;84.27;98632.21;103779;279;38266;-71
2023/03/10 04:22:00;;;;;;;20.50;14.80;;;;;;;0.37;84.48;98629.44;103784;275;38501;-70
2023/03/10 04:24:34;;;;;;;21.50;15.30;;;;;;;0.37;84.47;98631.69;103769;278;38486;-72
2023/03/10 04:27:10;;;;;;;23.70;15.90;;;;;;;0.37;84.43;98637.85;103745;278;40604;-72
2023/03/10 04:29:44;;;;;;;21.50;14.80;;;;;;;0.38;84.39;98642.27;103819;278;39007;-72
2023/03/10 04:32:18;;;;;;;21.40;14.40;;;;;;;0.40;84.45;98646.70;103752;278;38248;-72
2023/03/10 04:34:52;;;;;;;23.80;15.00;;;;;;;0.41;84.81;98646.66;103823;278;39665;-71
2023/03/10 04:37:26;;;;;;;22.90;16.10;;;;;;;0.41;84.82;98639.32;103750;279;38222;-70
2023/03/10 04:40:07;;;;;;;25.30;17.20;;;;;;;0.41;84.85;98641.52;103813;279;38510;-72
2023/03/10 04:42:42;;;;;;;24.20;16.20;;;;;;;0.39;84.77;98640.02;103752;279;37262;-71
2023/03/10 04:45:16;;;;;;;23.90;16.30;;;;;;;0.42;84.90;98628.63;103788;279;39463;-70
2023/03/10 04:47:50;;;;;;;22.70;16.20;;;;;;;0.43;84.87;98620.03;103774;279;38960;-72
2023/03/10 04:50:35;;;;;;;23.00;16.70;;;;;;;0.47;85.16;98616.17;103659;278;38332;-71
2023/03/10 04:53:09;;;;;;;24.80;17.80;;;;;;;0.46;85.38;98613.09;103632;278;39030;-69
2023/03/10 04:55:43;;;;;;;26.60;18.10;;;;;;;0.46;85.51;98603.50;103765;278;39420;-71
2023/03/10 04:58:17;;;;;;;25.30;16.60;;;;;;;0.46;85.52;98590.13;103746;278;39421;-72
2023/03/10 05:00:51;;;;;;;24.50;16.50;;;;;;;0.46;85.58;98586.48;103776;278;38746;-72
2023/03/10 05:03:25;;;;;;;20.60;15.40;;;;;;;0.47;85.54;98575.84;103784;278;40652;-70
2023/03/10 05:05:59;;;;;;;21.80;16.00;;;;;;;0.51;85.68;98570.09;103791;279;38347;-72
2023/03/10 05:08:33;;;;;;;22.40;16.40;;;;;;;0.51;85.81;98562.70;103767;278;38820;-71
2023/03/10 05:11:10;;;;;;;22.50;16.20;;;;;;;0.52;86.14;98551.69;101576;279;3013546;-70
2023/03/10 05:13:45;;;;;;;24.60;16.10;;;;;;;0.47;86.24;98550.10;103735;279;39406;-71
2023/03/10 05:16:20;;;;;;;23.60;16.10;;;;;;;0.44;86.54;98529.27;103730;279;38923;-72
2023/03/10 05:18:54;;;;;;;20.40;14.60;;;;;;;0.42;86.45;98514.05;103787;279;39937;-69
2023/03/10 05:21:28;;;;;;;20.80;15.20;;;;;;;0.45;86.73;98525.46;103801;279;38325;-71
2023/03/10 05:24:02;;;;;;;25.20;17.10;;;;;;;0.46;86.60;98545.16;103861;279;38374;-72
2023/03/10 05:26:36;;;;;;;23.40;16.60;;;;;;;0.48;86.83;98549.23;103809;279;38306;-70
2023/03/10 05:29:10;;;;;;;23.90;16.10;;;;;;;0.47;86.86;98556.96;103765;279;38218;-72
2023/03/10 05:31:44;;;;;;;22.90;15.70;;;;;;;0.50;86.80;98545.57;103786;279;38483;-72
2023/03/10 05:34:19;;;;;;;20.90;15.50;;;;;;;0.56;86.82;98544.22;103786;279;39086;-71
2023/03/10 05:36:53;;;;;;;21.00;15.70;;;;;;;0.61;86.89;98544.41;103776;279;38289;-72
2023/03/10 05:39:28;;;;;;;21.50;15.40;;;;;;;0.65;86.79;98526.31;103774;267;38264;-70
2023/03/10 05:42:02;;;;;;;24.10;17.30;;;;;;;0.65;87.14;98509.14;103800;279;38547;-72
2023/03/10 05:44:36;;;;;;;24.50;16.50;;;;;;;0.66;87.46;98503.11;103666;279;38696;-70
2023/03/10 05:47:12;;;;;;;21.40;15.70;;;;;;;0.66;87.18;98500.02;103768;279;39686;-72
2023/03/10 05:49:47;;;;;;;20.60;15.00;;;;;;;0.69;87.37;98489.45;103815;279;38540;-70
2023/03/10 05:52:21;;;;;;;21.20;15.50;;;;;;;0.70;87.37;98495.95;103824;279;39416;-70
2023/03/10 05:54:55;;;;;;;23.00;16.10;;;;;;;0.72;87.62;98501.21;103789;279;38231;-70
2023/03/10 05:57:29;;;;;;;25.00;18.30;;;;;;;0.70;87.83;98504.02;103449;279;443383;-70
2023/03/10 06:00:04;;;;;;;25.80;16.90;;;;;;;0.71;87.73;98511.38;103804;279;38414;-72
2023/03/10 06:02:38;;;;;;;23.50;16.40;;;;;;;0.72;87.89;98504.64;103779;279;38232;-72
2023/03/10 06:05:14;;;;;;;21.10;15.30;;;;;;;0.75;87.78;98504.40;103798;267;38891;-70
2023/03/10 06:07:49;;;;;;;22.90;16.30;;;;;;;0.79;88.02;98494.67;103803;279;38333;-72
2023/03/10 06:10:24;;;;;;;25.20;18.20;;;;;;;0.79;88.43;98492.61;103772;279;39095;-72
2023/03/10 06:12:58;;;;;;;24.90;18.10;;;;;;;0.79;88.39;98488.48;103792;279;38375;-71
2023/03/10 06:15:33;;;;;;;23.40;17.70;;;;;;;0.81;88.32;98487.42;103818;279;39730;-71
2023/03/10 06:18:07;;;;;;;25.00;17.50;;;;;;;0.82;88.58;98477.23;103780;279;38414;-70
2023/03/10 06:20:42;;;;;;;24.70;17.30;;;;;;;0.90;88.34;98477.71;103741;279;38625;-71
2023/03/10 06:23:16;;;;;;;26.00;18.10;;;;;;;0.98;88.48;98474.36;103698;279;39068;-72
2023/03/10 06:25:58;;;;;;;26.50;18.90;;;;;;;1.04;88.55;98471.11;103747;279;39451;-71
2023/03/10 06:28:34;;;;;;;29.90;19.70;;;;;;;1.10;88.53;98471.29;103855;279;38515;-72
2023/03/10 06:31:12;;;;;;;27.80;18.90;;;;;;;1.12;88.38;98476.00;103784;267;38586;-70
2023/03/10 06:33:47;;;;;;;25.30;18.50;;;;;;;1.14;88.46;98473.05;103798;279;39796;-72
2023/03/10 06:36:21;;;;;;;27.30;18.70;;;;;;;1.16;88.46;98456.81;103779;279;39396;-70
2023/03/10 06:38:58;;;;;;;28.60;19.60;;;;;;;1.23;88.93;98442.02;103804;279;39573;-71
2023/03/10 06:41:33;;;;;;;33.00;21.10;;;;;;;1.25;88.62;98453.48;103788;279;38259;-72
2023/03/10 06:44:08;;;;;;;32.80;20.20;;;;;;;1.26;88.75;98460.80;103788;279;38959;-68
2023/03/10 06:46:43;;;;;;;27.90;19.60;;;;;;;1.28;88.82;98458.86;103750;279;38486;-70
2023/03/10 06:49:19;;;;;;;27.00;19.60;;;;;;;1.34;88.87;98460.92;103767;279;38231;-71
2023/03/10 06:51:56;;;;;;;28.80;19.90;;;;;;;1.42;88.81;98458.27;103760;279;38249;-70
2023/03/10 06:54:33;;;;;;;30.20;21.40;;;;;;;1.52;88.99;98448.83;103774;279;39385;-71
2023/03/10 06:57:10;;;;;;;33.80;22.10;;;;;;;1.59;88.67;98453.24;103776;267;39664;-70
2023/03/10 06:59:46;;;;;;;32.50;21.20;;;;;;;1.63;88.60;98441.10;103793;279;38278;-73
2023/03/10 07:02:20;;;;;;;32.30;20.90;;;;;;;1.70;88.79;98425.73;103794;279;38412;-72
2023/03/10 07:04:54;;;;;;;30.60;21.20;;;;;;;1.73;88.79;98425.11;103764;279;38269;-73
2023/03/10 07:07:28;;;;;;;34.90;23.20;;;;;;;1.80;88.79;98426.91;103811;278;38308;-73
2023/03/10 07:10:03;;;;;;;36.40;23.80;;;;;;;1.89;88.87;98413.40;103824;279;38892;-73
2023/03/10 07:12:37;;;;;;;36.20;22.50;;;;;;;1.92;88.79;98415.70;103656;279;38494;-74
2023/03/10 07:15:13;;;;;;;35.00;22.40;;;;;;;1.96;88.72;98411.93;103774;279;39736;-72
2023/03/10 07:17:48;;;;;;;33.40;22.90;;;;;;;2.02;88.66;98404.69;103698;279;38763;-71
2023/03/10 07:20:23;;;;;;;34.20;22.60;;;;;;;2.09;88.55;98420.27;103764;279;38697;-71
2023/03/10 07:22:57;;;;;;;36.90;24.30;;;;;;;2.17;88.54;98400.20;103856;279;38986;-77
2023/03/10 07:25:31;;;;;;;35.50;25.00;;;;;;;2.18;88.33;98389.66;103663;279;39399;-73
2023/03/10 07:28:06;;;;;;;38.50;24.40;;;;;;;2.18;88.40;98397.25;103802;279;39453;-72
2023/03/10 07:30:41;;;;;;;35.60;23.20;;;;;;;2.22;88.42;98401.75;103661;278;38747;-72
2023/03/10 07:33:16;;;;;;;32.60;22.00;;;;;;;2.29;88.36;98409.92;103805;278;39142;-74
2023/03/10 07:35:50;;;;;;;37.80;24.70;;;;;;;2.40;88.56;98407.98;103768;279;38438;-73
2023/03/10 07:38:24;;;;;;;36.30;25.40;;;;;;;2.45;88.37;98398.16;103788;279;38381;-72
2023/03/10 07:40:58;;;;;;;37.50;25.60;;;;;;;2.53;88.40;98397.69;103662;278;175802;-73
2023/03/10 07:43:32;;;;;;;36.00;23.80;;;;;;;2.60;88.39;98396.58;103775;278;39418;-70
2023/03/10 07:46:09;;;;;;;34.80;22.80;;;;;;;2.73;88.49;98388.85;103644;278;38247;-73
2023/03/10 07:48:43;;;;;;;35.50;23.90;;;;;;;2.90;88.64;98387.00;103800;278;38617;-72
2023/03/10 07:51:18;;;;;;;34.90;24.20;;;;;;;3.04;88.39;98377.82;103784;278;38316;-72
2023/03/10 07:53:51;;;;;;;38.30;24.80;;;;;;;3.17;88.27;98370.27;103756;278;38685;-73
2023/03/10 07:56:25;;;;;;;37.20;26.80;;;;;;;3.26;87.86;98373.71;103764;278;38953;-73
2023/03/10 07:59:00;;;;;;;39.30;25.30;;;;;;;3.29;87.40;98361.66;103792;278;38853;-73
2023/03/10 08:01:34;;;;;;;37.70;25.00;;;;;;;3.30;87.21;98354.21;103779;279;38234;-72
2023/03/10 08:04:08;;;;;;;35.80;23.40;;;;;;;3.39;87.43;98352.83;103798;278;38522;-70
2023/03/10 08:06:42;;;;;;;32.90;23.80;;;;;;;3.47;87.21;98341.14;103801;279;39543;-72
2023/03/10 08:09:17;;;;;;;37.30;25.30;;;;;;;3.57;87.09;98336.56;103630;277;38355;-70
2023/03/10 08:11:52;;;;;;;37.60;24.30;;;;;;;3.64;87.06;98335.06;103786;278;39889;-71
2023/03/10 08:14:25;;;;;;;38.10;24.40;;;;;;;3.68;87.01;98329.04;103668;279;39941;-70
2023/03/10 08:17:00;;;;;;;32.90;22.50;;;;;;;3.74;86.64;98325.14;103753;278;39972;-72
2023/03/10 08:19:34;;;;;;;34.80;23.30;;;;;;;3.77;86.63;98326.58;103808;278;39415;-73
2023/03/10 08:22:09;;;;;;;36.60;24.30;;;;;;;3.84;86.66;98318.13;103767;278;39570;-72
2023/03/10 08:24:45;;;;;;;35.80;25.00;;;;;;;3.93;86.66;98324.86;103795;278;38747;-72
2023/03/10 08:27:22;;;;;;;37.30;23.70;;;;;;;3.99;86.47;98334.75;103814;278;38248;-69
2023/03/10 08:29:58;;;;;;;34.10;22.70;;;;;;;4.00;86.16;98329.89;103802;278;39404;-70
2023/03/10 08:32:33;;;;;;;35.20;23.60;;;;;;;3.96;85.88;98318.13;103826;278;38227;-70
2023/03/10 08:35:09;;;;;;;38.20;25.30;;;;;;;3.95;86.02;98317.14;103800;278;39667;-71
2023/03/10 08:37:44;;;;;;;35.50;24.10;;;;;;;3.98;86.16;98313.73;103773;279;39439;-72
2023/03/10 08:40:20;;;;;;;37.20;24.40;;;;;;;3.99;86.04;98305.42;103760;278;39568;-72
2023/03/10 08:42:54;;;;;;;37.30;24.10;;;;;;;4.03;86.08;98312.99;103792;279;38532;-74
2023/03/10 08:45:28;;;;;;;37.10;25.10;;;;;;;4.03;85.94;98311.11;103779;278;39768;-74
2023/03/10 08:48:03;;;;;;;36.50;25.20;;;;;;;4.03;85.99;98315.41;103788;278;39996;-73
2023/03/10 08:50:37;;;;;;;39.20;25.40;;;;;;;4.09;86.40;98314.27;103745;278;38486;-70
2023/03/10 08:53:11;;;;;;;36.60;24.50;;;;;;;4.20;86.60;98317.77;103735;278;38257;-73
2023/03/10 08:55:45;;;;;;;37.10;23.20;;;;;;;4.32;86.76;98315.66;103759;279;39970;-74
2023/03/10 08:58:19;;;;;;;38.50;25.50;;;;;;;4.39;86.41;98308.59;103789;279;38238;-73
2023/03/10 09:00:53;;;;;;;37.90;25.40;;;;;;;4.46;86.60;98292.92;103766;279;38240;-73
2023/03/10 09:03:27;;;;;;;39.90;25.60;;;;;;;4.54;86.62;98288.58;103150;267;912523;-72
2023/03/10 09:06:01;;;;;;;38.10;24.50;;;;;;;4.59;86.69;98286.42;103766;278;39163;-71
2023/03/10 09:08:35;;;;;;;34.30;22.10;;;;;;;4.74;86.82;98283.17;103794;279;38249;-73
2023/03/10 09:11:09;;;;;;;35.50;23.80;;;;;;;4.89;86.79;98275.88;103747;279;39973;-72
2023/03/10 09:13:43;;;;;;;34.20;23.30;;;;;;;4.97;86.30;98268.89;103670;279;38270;-71
2023/03/10 09:16:17;;;;;;;37.40;23.90;;;;;;;5.02;86.11;98265.71;103774;279;38403;-72
2023/03/10 09:18:51;;;;;;;32.70;21.10;;;;;;;5.11;86.39;98264.58;103797;279;38239;-71
2023/03/10 09:21:25;;;;;;;31.00;20.50;;;;;;;5.23;86.45;98255.85;103768;279;38252;-71
2023/03/10 09:23:59;;;;;;;33.30;21.20;;;;;;;5.34;86.30;98248.92;103793;279;38642;-74
2023/03/10 09:26:34;;;;;;;32.50;21.60;;;;;;;5.40;86.12;98245.31;103762;279;38427;-73
2023/03/10 09:29:09;;;;;;;32.20;21.60;;;;;;;5.46;85.98;98244.01;103750;279;38290;-74
2023/03/10 09:31:47;;;;;;;35.60;21.60;;;;;;;5.49;85.79;98239.00;103756;279;38237;-71
2023/03/10 09:34:20;;;;;;;31.80;20.40;;;;;;;5.50;85.64;98241.72;103808;267;39706;-76
2023/03/10 09:36:54;;;;;;;31.50;20.70;;;;;;;5.52;85.75;98236.42;103792;279;38660;-76
2023/03/10 09:39:28;;;;;;;29.50;20.10;;;;;;;5.52;85.75;98240.72;103818;279;38521;-76
2023/03/10 09:42:18;;;;;;;30.40;21.30;;;;;;;5.50;85.71;98239.80;103558;280;188821;-74
2023/03/10 09:44:57;;;;;;;32.00;19.50;;;;;;;5.46;85.71;98242.25;103657;279;39618;-74
2023/03/10 09:47:44;;;;;;;28.90;18.90;;;;;;;5.46;85.70;98241.38;103800;279;38280;-73
2023/03/10 09:50:33;;;;;;;29.30;20.40;;;;;;;5.48;85.85;98227.95;103809;278;39415;-73
2023/03/10 09:53:20;;;;;;;31.00;20.20;;;;;;;5.47;85.74;98228.70;103808;279;39454;-75
2023/03/10 09:55:54;;;;;;;33.70;20.90;;;;;;;5.45;85.75;98227.27;103802;279;38279;-73
2023/03/10 09:58:33;;;;;;;32.40;20.80;;;;;;;5.38;85.66;98230.55;103804;279;39662;-74
2023/03/10 10:01:11;;;;;;;35.20;19.80;;;;;;;5.35;85.80;98230.88;103784;279;38447;-72
2023/03/10 10:03:48;;;;;;;28.60;19.20;;;;;;;5.37;86.04;98222.33;103788;279;38252;-74
2023/03/10 10:06:26;;;;;;;29.80;19.60;;;;;;;5.39;86.35;98219.45;103788;267;38509;-73
2023/03/10 10:09:12;;;;;;;31.70;20.20;;;;;;;5.42;86.79;98214.09;103176;279;911552;-73
2023/03/10 10:11:46;;;;;;;33.50;21.20;;;;;;;5.45;86.94;98210.84;103813;279;38416;-74
2023/03/10 10:14:23;;;;;;;33.60;21.00;;;;;;;5.47;87.05;98207.42;103776;279;38591;-74
2023/03/10 10:17:01;;;;;;;29.20;19.00;;;;;;;5.55;87.21;98205.30;103671;279;39599;-72
2023/03/10 10:19:35;;;;;;;30.30;18.30;;;;;;;5.65;87.51;98189.73;103838;279;38759;-73
2023/03/10 10:22:18;;;;;;;30.30;19.20;;;;;;;5.78;87.73;98177.09;103666;279;40040;-72
2023/03/10 10:25:10;;;;;;;31.20;19.80;;;;;;;5.93;87.89;98174.94;103735;279;39614;-74
2023/03/10 10:27:46;;;;;;;31.40;19.70;;;;;;;6.02;87.63;98178.97;103763;279;38589;-73
2023/03/10 10:30:35;;;;;;;25.90;18.00;;;;;;;6.04;87.49;98176.42;103763;279;38625;-73
2023/03/10 10:33:10;;;;;;;30.60;19.00;;;;;;;6.12;87.61;98171.45;103824;279;39763;-73
2023/03/10 10:35:46;;;;;;;25.00;17.40;;;;;;;6.27;87.92;98168.77;103787;279;39430;-74
2023/03/10 10:38:27;;;;;;;29.10;18.00;;;;;;;6.43;88.14;98171.46;103801;279;38505;-73
2023/03/10 10:41:04;;;;;;;31.20;20.30;;;;;;;6.58;87.97;98170.81;103748;279;38722;-75
2023/03/10 10:43:44;;;;;;;30.00;19.10;;;;;;;6.67;87.44;98170.46;103677;280;38286;-75
2023/03/10 10:46:26;;;;;;;31.00;18.60;;;;;;;6.78;87.56;98168.79;103538;279;38424;-74
2023/03/10 10:49:18;;;;;;;26.10;17.70;;;;;;;6.89;87.31;98171.59;103812;279;38507;-73
2023/03/10 10:52:01;;;;;;;29.30;18.80;;;;;;;7.04;87.18;98165.73;103786;279;38361;-75
2023/03/10 10:54:40;;;;;;;30.70;18.80;;;;;;;7.16;87.05;98162.36;103771;279;39633;-74
2023/03/10 10:57:22;;;;;;;32.90;20.10;;;;;;;7.28;86.69;98159.11;103776;279;38392;-75
2023/03/10 10:59:56;;;;;;;30.50;18.70;;;;;;;7.44;87.35;98164.73;103822;279;38348;-74
2023/03/10 11:02:33;;;;;;;30.00;18.50;;;;;;;7.70;87.89;98158.97;103789;279;38274;-75
2023/03/10 11:05:17;;;;;;;25.60;18.50;;;;;;;7.93;87.19;98158.56;103654;279;39249;-74
2023/03/10 11:07:52;;;;;;;25.40;18.20;;;;;;;8.10;86.59;98156.61;103716;279;40429;-74
2023/03/10 11:10:30;;;;;;;27.50;18.70;;;;;;;8.18;85.97;98154.39;103700;279;39825;-73
2023/03/10 11:13:06;;;;;;;25.20;16.90;;;;;;;8.24;85.34;98154.66;103775;279;38949;-74
2023/03/10 11:15:43;;;;;;;27.60;18.20;;;;;;;8.28;84.80;98155.30;103702;279;38378;-74
2023/03/10 11:18:19;;;;;;;23.00;17.00;;;;;;;8.34;84.69;98159.44;103738;279;38529;-74
2023/03/10 11:20:58;;;;;;;24.40;16.80;;;;;;;8.43;84.65;98149.67;103718;279;38878;-72
2023/03/10 11:23:35;;;;;;;24.10;17.20;;;;;;;8.58;85.19;98149.58;103713;279;38460;-73
2023/03/10 11:26:14;;;;;;;25.10;18.00;;;;;;;8.76;85.43;98144.04;103641;279;38546;-74
2023/03/10 11:28:52;;;;;;;27.70;17.90;;;;;;;8.89;84.22;98132.22;103719;279;39436;-73
2023/03/10 11:31:36;;;;;;;25.80;17.30;;;;;;;8.97;84.17;98128.55;103721;279;38273;-71
2023/03/10 11:34:22;;;;;;;26.70;17.10;;;;;;;9.07;83.79;98130.48;103774;279;38709;-74
2023/03/10 11:37:03;;;;;;;24.30;15.70;;;;;;;9.16;83.67;98124.64;103729;279;38542;-74
2023/03/10 11:39:48;;;;;;;24.40;15.80;;;;;;;9.22;82.68;98122.33;103698;279;175434;-72
2023/03/10 11:42:28;;;;;;;23.60;16.70;;;;;;;9.26;82.36;98114.20;103738;279;38352;-74
2023/03/10 11:45:16;;;;;;;28.30;17.80;;;;;;;9.34;82.67;98112.13;103671;280;38836;-74
2023/03/10 11:47:57;;;;;;;23.40;16.40;;;;;;;9.48;82.74;98105.95;103552;276;175408;-72
2023/03/10 11:50:40;;;;;;;24.40;16.70;;;;;;;9.58;81.64;98104.39;103675;280;38272;-73
2023/03/10 11:53:18;;;;;;;22.90;15.60;;;;;;;9.68;82.22;98094.42;103660;281;39384;-75
2023/03/10 11:55:51;;;;;;;24.60;15.90;;;;;;;9.81;81.51;98089.34;103674;280;38534;-74
2023/03/10 11:58:29;;;;;;;25.60;16.30;;;;;;;9.84;81.09;98087.19;103668;280;38935;-76
2023/03/10 12:01:03;;;;;;;22.20;15.40;;;;;;;9.91;81.02;98083.59;103636;281;39672;-73
2023/03/10 12:03:47;;;;;;;27.00;16.80;;;;;;;10.02;80.83;98082.76;103701;280;38103;-74